Time;durP1;ratioP1;P1;durP2;ratioP2;P2;SDS_P1;SDS_P2;PMS_P1;PMS_P2;Temp;Humidity;BMP_temperature;BMP_pressure;BME280_temperature;BME280_humidity;BME280_pressure;Samples;Min_cycle;Max_cycle;Signal;HPM_P1;HPM_P2
2023/12/18 00:00:48;;;;;;;9.80;7.90;;;;;;;21.47;30.30;102617.59;103194;1293;59784;-81
2023/12/18 00:03:14;;;;;;;9.50;8.00;;;;;;;21.48;30.41;102622.60;103127;1294;75237;-81
2023/12/18 00:05:40;;;;;;;10.00;7.70;;;;;;;21.48;30.33;102621.88;103115;1294;62198;-81
2023/12/18 00:08:06;;;;;;;9.30;7.70;;;;;;;21.48;30.48;102627.06;103243;1293;60075;-81
2023/12/18 00:10:32;;;;;;;10.70;8.40;;;;;;;21.47;30.42;102626.52;103051;1294;62415;-81
2023/12/18 00:12:58;;;;;;;10.60;8.50;;;;;;;21.48;30.31;102625.79;102867;1293;60693;-81
2023/12/18 00:15:23;;;;;;;10.40;8.20;;;;;;;21.48;30.34;102622.95;103043;1292;62202;-81
2023/12/18 00:17:49;;;;;;;10.30;8.40;;;;;;;21.48;30.57;102615.42;103172;1292;62173;-81
2023/12/18 00:20:16;;;;;;;10.40;8.00;;;;;;;21.48;30.39;102613.25;103208;1292;62031;-81
2023/12/18 00:22:43;;;;;;;10.30;8.40;;;;;;;21.48;30.34;102611.30;103165;1292;62237;-81
2023/12/18 00:25:09;;;;;;;10.20;8.20;;;;;;;21.48;30.37;102613.44;103189;1293;62231;-81
2023/12/18 00:27:34;;;;;;;12.00;7.80;;;;;;;21.48;30.39;102612.38;103350;1294;62195;-81
2023/12/18 00:30:00;;;;;;;10.60;8.20;;;;;;;21.48;30.50;102615.23;102983;1292;62225;-81
2023/12/18 00:32:26;;;;;;;9.90;7.80;;;;;;;21.47;30.41;102613.47;103035;1298;59979;-81
2023/12/18 00:34:51;;;;;;;9.40;7.50;;;;;;;21.46;30.34;102618.71;103331;1293;62243;-81
2023/12/18 00:37:17;;;;;;;10.60;8.30;;;;;;;21.45;30.46;102615.72;103075;1294;75074;-80
2023/12/18 00:39:43;;;;;;;9.50;7.60;;;;;;;21.44;30.40;102612.52;103091;1293;60072;-81
2023/12/18 00:42:08;;;;;;;10.90;7.90;;;;;;;21.41;30.23;102613.53;103204;1292;62207;-81
2023/12/18 00:44:34;;;;;;;11.50;8.40;;;;;;;21.39;30.60;102616.30;103207;1294;62164;-81
2023/12/18 00:46:59;;;;;;;9.00;7.50;;;;;;;21.38;30.51;102611.18;103072;1294;62095;-81
2023/12/18 00:49:27;;;;;;;9.90;7.80;;;;;;;21.35;30.53;102606.46;103039;1293;75376;-80
2023/12/18 00:51:54;;;;;;;9.50;8.00;;;;;;;21.34;30.50;102601.89;103176;1293;62030;-81
2023/12/18 00:54:20;;;;;;;10.40;8.20;;;;;;;21.31;30.57;102595.53;103342;1293;60059;-81
2023/12/18 00:56:45;;;;;;;10.40;7.80;;;;;;;21.30;30.58;102597.20;103149;1294;62204;-81
2023/12/18 00:59:11;;;;;;;10.20;7.50;;;;;;;21.29;30.52;102595.45;103261;1292;62205;-81
2023/12/18 01:01:38;;;;;;;9.60;7.80;;;;;;;21.28;30.54;102589.75;103127;1292;62292;-81
2023/12/18 01:04:03;;;;;;;9.20;7.60;;;;;;;21.28;30.63;102577.23;103075;1293;60018;-81
2023/12/18 01:06:29;;;;;;;9.80;7.80;;;;;;;21.29;30.58;102567.71;103236;1293;62095;-81
2023/12/18 01:08:56;;;;;;;10.00;7.80;;;;;;;21.29;30.53;102566.10;103394;1292;62228;-81
2023/12/18 01:11:21;;;;;;;10.00;8.20;;;;;;;21.29;30.50;102560.73;103094;1294;62306;-81
2023/12/18 01:13:47;;;;;;;10.90;8.00;;;;;;;21.30;30.56;102555.52;103078;1294;60003;-81
2023/12/18 01:16:12;;;;;;;10.60;7.90;;;;;;;21.30;30.65;102552.81;103448;1293;62221;-81
2023/12/18 01:18:38;;;;;;;9.90;7.30;;;;;;;21.31;30.71;102548.64;103068;1293;62187;-81
2023/12/18 01:21:04;;;;;;;10.10;8.00;;;;;;;21.31;30.56;102538.41;103038;1292;62080;-81
2023/12/18 01:23:30;;;;;;;10.10;7.30;;;;;;;21.32;30.45;102539.81;103193;1292;59900;-81
2023/12/18 01:25:55;;;;;;;9.60;7.60;;;;;;;21.33;30.54;102536.91;103056;1294;62231;-81
2023/12/18 01:28:21;;;;;;;9.80;8.00;;;;;;;21.34;30.56;102529.70;103120;1293;62242;-81
2023/12/18 01:30:46;;;;;;;9.50;7.60;;;;;;;21.34;30.55;102522.15;103015;1296;60097;-81
2023/12/18 01:33:12;;;;;;;10.00;7.70;;;;;;;21.35;30.55;102512.82;103136;1292;62224;-81
2023/12/18 01:35:38;;;;;;;8.80;7.30;;;;;;;21.36;30.48;102510.98;102957;1292;62155;-81
2023/12/18 01:38:03;;;;;;;9.00;7.00;;;;;;;21.36;30.49;102503.61;103155;1292;62208;-81
2023/12/18 01:40:29;;;;;;;9.10;7.50;;;;;;;21.36;30.51;102494.84;103379;1292;62239;-81
2023/12/18 01:42:55;;;;;;;9.40;7.60;;;;;;;21.37;30.45;102490.35;103203;1292;72499;-81
2023/12/18 01:45:20;;;;;;;9.00;7.50;;;;;;;21.38;30.54;102492.63;103322;1292;62194;-81
2023/12/18 01:47:46;;;;;;;9.40;7.40;;;;;;;21.38;30.44;102490.10;103299;1292;60107;-81
2023/12/18 01:50:12;;;;;;;9.00;6.80;;;;;;;21.39;30.51;102485.95;103422;1292;60185;-81
2023/12/18 01:52:37;;;;;;;9.70;7.40;;;;;;;21.39;30.54;102487.71;103186;1292;62089;-82
2023/12/18 01:55:03;;;;;;;9.70;7.30;;;;;;;21.39;30.44;102487.16;103020;1293;62285;-81
2023/12/18 01:57:29;;;;;;;9.80;7.70;;;;;;;21.40;30.50;102489.27;103186;1293;75340;-81
2023/12/18 01:59:55;;;;;;;10.00;7.80;;;;;;;21.41;30.53;102482.25;103112;1292;60826;-81
2023/12/18 02:02:20;;;;;;;11.50;8.10;;;;;;;21.42;30.43;102483.13;103061;1294;62318;-81
2023/12/18 02:04:46;;;;;;;10.20;7.50;;;;;;;21.42;30.33;102488.48;103102;1294;62257;-81
2023/12/18 02:07:12;;;;;;;8.30;7.30;;;;;;;21.42;30.39;102493.48;103094;1293;60527;-81
2023/12/18 02:09:39;;;;;;;9.20;6.80;;;;;;;21.42;30.38;102491.15;103302;1292;60049;-81
2023/12/18 02:12:05;;;;;;;10.20;7.20;;;;;;;21.43;30.32;102487.73;103146;1293;62324;-81
2023/12/18 02:14:31;;;;;;;9.10;7.00;;;;;;;21.43;30.43;102488.08;103148;1292;60040;-81
2023/12/18 02:16:57;;;;;;;8.70;6.90;;;;;;;21.44;30.42;102481.78;103118;1294;62071;-81
2023/12/18 02:19:24;;;;;;;8.90;7.20;;;;;;;21.44;30.38;102486.42;103090;1293;62273;-81
2023/12/18 02:21:49;;;;;;;8.90;7.10;;;;;;;21.44;30.30;102481.23;103250;1292;62270;-81
2023/12/18 02:24:15;;;;;;;9.30;7.50;;;;;;;21.45;30.36;102472.60;103090;1293;62199;-81
2023/12/18 02:26:40;;;;;;;8.60;6.90;;;;;;;21.45;30.38;102464.71;103181;1294;60210;-81
2023/12/18 02:29:06;;;;;;;8.90;7.00;;;;;;;21.45;30.32;102464.71;103137;1293;62210;-81
2023/12/18 02:31:36;;;;;;;8.70;6.90;;;;;;;21.46;30.43;102468.99;103123;1293;62205;-81
2023/12/18 02:34:01;;;;;;;9.00;6.90;;;;;;;21.46;30.27;102480.09;103067;1293;62226;-81
2023/12/18 02:36:28;;;;;;;9.90;7.30;;;;;;;21.46;30.35;102477.92;103203;1293;59903;-81
2023/12/18 02:38:54;;;;;;;9.10;6.90;;;;;;;21.46;30.31;102486.88;103220;1293;62147;-81
2023/12/18 02:41:19;;;;;;;8.80;6.90;;;;;;;21.46;30.31;102482.56;103305;1292;62299;-81
2023/12/18 02:43:45;;;;;;;8.10;6.50;;;;;;;21.47;30.39;102485.23;103063;1292;62205;-81
2023/12/18 02:46:11;;;;;;;8.90;6.80;;;;;;;21.47;30.46;102487.20;103028;1292;60115;-81
2023/12/18 02:48:37;;;;;;;9.70;7.80;;;;;;;21.47;30.36;102485.59;103282;1293;62101;-81
2023/12/18 02:51:02;;;;;;;9.10;7.40;;;;;;;21.47;30.42;102484.50;103066;1294;72187;-81
2023/12/18 02:53:28;;;;;;;8.60;6.90;;;;;;;21.47;30.30;102483.96;103158;1294;60848;-80
2023/12/18 02:55:54;;;;;;;8.30;6.80;;;;;;;21.47;30.31;102485.41;102901;1293;62085;-81
2023/12/18 02:58:22;;;;;;;8.10;6.80;;;;;;;21.47;30.37;102483.44;103110;1293;62324;-81
2023/12/18 03:00:49;;;;;;;9.60;7.30;;;;;;;21.47;30.35;102477.33;103056;1293;72302;-81
2023/12/18 03:03:15;;;;;;;9.10;7.10;;;;;;;21.47;30.38;102477.34;102948;1293;60138;-80
2023/12/18 03:05:41;;;;;;;8.40;6.40;;;;;;;21.47;30.44;102473.39;102991;1293;60017;-80
2023/12/18 03:08:06;;;;;;;8.30;6.70;;;;;;;21.48;30.33;102468.88;102888;1293;60786;-81
2023/12/18 03:10:32;;;;;;;9.20;7.30;;;;;;;21.48;30.30;102471.04;103002;1292;62180;-81
2023/12/18 03:12:58;;;;;;;9.00;6.80;;;;;;;21.47;30.41;102476.06;103009;1293;62311;-81
2023/12/18 03:15:23;;;;;;;7.40;6.50;;;;;;;21.48;30.28;102478.02;103074;1292;75224;-81
2023/12/18 03:17:49;;;;;;;9.60;6.80;;;;;;;21.48;30.25;102479.29;103114;1294;62095;-81
2023/12/18 03:20:15;;;;;;;8.20;6.60;;;;;;;21.48;30.41;102475.52;103089;1293;62205;-81
2023/12/18 03:22:41;;;;;;;8.80;6.70;;;;;;;21.48;30.24;102476.06;103212;1293;62200;-81
2023/12/18 03:25:07;;;;;;;8.20;6.60;;;;;;;21.48;30.26;102472.80;103086;1292;62185;-81
2023/12/18 03:27:33;;;;;;;7.90;6.40;;;;;;;21.48;30.33;102468.87;103196;1292;62282;-81
2023/12/18 03:29:59;;;;;;;8.70;6.80;;;;;;;21.48;30.25;102467.61;103183;1296;60271;-80
2023/12/18 03:32:25;;;;;;;8.80;6.40;;;;;;;21.48;30.22;102462.77;103060;1293;62167;-81
2023/12/18 03:34:50;;;;;;;8.30;6.70;;;;;;;21.48;30.30;102464.39;103052;1294;62167;-81
2023/12/18 03:37:16;;;;;;;10.20;7.10;;;;;;;21.49;30.26;102469.92;103076;1294;62210;-81
2023/12/18 03:39:41;;;;;;;8.90;6.90;;;;;;;21.49;30.34;102473.67;103206;1293;60065;-80
2023/12/18 03:42:07;;;;;;;8.80;7.30;;;;;;;21.48;30.15;102473.16;103070;1292;60279;-81
2023/12/18 03:44:33;;;;;;;7.80;6.70;;;;;;;21.49;30.27;102475.48;103295;1292;62258;-81
2023/12/18 03:46:58;;;;;;;7.90;6.70;;;;;;;21.49;30.18;102472.77;103385;1293;62191;-81
2023/12/18 03:49:24;;;;;;;8.80;6.60;;;;;;;21.49;30.22;102467.77;103085;1296;62218;-81
2023/12/18 03:51:52;;;;;;;7.70;6.30;;;;;;;21.49;30.15;102462.58;103086;1293;62059;-81
2023/12/18 03:54:17;;;;;;;8.50;6.60;;;;;;;21.49;30.28;102456.46;103337;1293;62088;-81
2023/12/18 03:56:43;;;;;;;8.00;6.70;;;;;;;21.49;30.25;102460.41;103051;1294;60414;-81
2023/12/18 03:59:09;;;;;;;9.30;7.00;;;;;;;21.49;30.25;102457.36;103286;1294;62292;-81
2023/12/18 04:01:35;;;;;;;9.10;6.40;;;;;;;21.50;30.19;102459.30;103310;1292;62258;-81
2023/12/18 04:04:00;;;;;;;8.90;6.60;;;;;;;21.49;30.22;102456.98;103171;1294;62215;-81
2023/12/18 04:06:26;;;;;;;9.00;6.40;;;;;;;21.50;30.10;102451.77;103326;1293;62069;-81
2023/12/18 04:08:52;;;;;;;8.70;6.60;;;;;;;21.49;30.34;102448.91;103229;1293;60236;-81
2023/12/18 04:11:18;;;;;;;8.30;6.50;;;;;;;21.50;30.07;102450.52;103131;1293;62289;-81
2023/12/18 04:13:44;;;;;;;8.60;6.40;;;;;;;21.50;30.23;102444.96;103427;1292;62196;-80
2023/12/18 04:16:10;;;;;;;8.30;6.30;;;;;;;21.50;30.15;102429.55;103191;1292;62141;-81
2023/12/18 04:18:36;;;;;;;8.40;6.30;;;;;;;21.50;30.21;102428.67;103273;1292;62199;-81
2023/12/18 04:21:02;;;;;;;8.10;6.30;;;;;;;21.50;30.26;102434.93;103166;1293;62175;-81
2023/12/18 04:23:28;;;;;;;8.80;6.70;;;;;;;21.50;30.16;102435.28;103238;1293;62096;-81
2023/12/18 04:25:53;;;;;;;8.70;6.50;;;;;;;21.50;30.19;102442.98;103125;1292;62279;-81
2023/12/18 04:28:19;;;;;;;8.40;6.40;;;;;;;21.51;30.07;102449.40;103423;1292;60159;-81
2023/12/18 04:30:45;;;;;;;8.30;6.40;;;;;;;21.50;30.18;102451.04;103010;1293;59910;-81
2023/12/18 04:33:11;;;;;;;9.60;7.00;;;;;;;21.51;30.03;102458.54;103365;1292;59926;-81
2023/12/18 04:35:37;;;;;;;9.00;6.20;;;;;;;21.50;30.08;102458.56;103311;1292;62071;-81
2023/12/18 04:38:03;;;;;;;8.70;6.70;;;;;;;21.50;30.19;102455.16;103382;1293;60138;-81
2023/12/18 04:40:29;;;;;;;9.00;6.90;;;;;;;21.50;30.07;102454.29;103256;1294;62084;-82
2023/12/18 04:42:54;;;;;;;9.00;6.50;;;;;;;21.50;30.09;102463.05;103042;1293;72484;-82
2023/12/18 04:45:20;;;;;;;9.00;6.30;;;;;;;21.50;30.00;102460.39;103213;1293;62183;-82
2023/12/18 04:47:49;;;;;;;8.50;6.60;;;;;;;21.49;29.80;102454.86;103044;1293;62199;-82
2023/12/18 04:50:14;;;;;;;7.50;6.30;;;;;;;21.48;29.78;102447.89;103222;1293;60347;-82
2023/12/18 04:52:41;;;;;;;8.30;6.30;;;;;;;21.48;29.84;102451.66;103145;1293;62202;-82
2023/12/18 04:55:07;;;;;;;7.80;6.50;;;;;;;21.48;29.82;102455.27;103060;1292;62305;-82
2023/12/18 04:57:33;;;;;;;9.30;6.50;;;;;;;21.48;29.70;102461.35;102786;1293;60341;-82
2023/12/18 04:59:59;;;;;;;8.10;6.50;;;;;;;21.48;29.74;102462.10;103139;1292;62203;-82
2023/12/18 05:02:25;;;;;;;8.40;7.10;;;;;;;21.48;29.71;102465.13;103205;1294;62189;-82
2023/12/18 05:04:51;;;;;;;8.80;7.10;;;;;;;21.47;29.61;102464.08;103154;1294;62222;-82
2023/12/18 05:07:16;;;;;;;8.10;6.30;;;;;;;21.46;29.55;102459.48;103023;1294;60038;-82
2023/12/18 05:09:42;;;;;;;8.70;6.40;;;;;;;21.46;29.52;102457.70;103267;1292;62062;-82
2023/12/18 05:12:08;;;;;;;9.60;7.40;;;;;;;21.46;29.46;102444.06;103283;1292;62167;-82
2023/12/18 05:14:33;;;;;;;8.20;6.10;;;;;;;21.46;29.51;102423.85;102980;1293;62250;-83
2023/12/18 05:17:00;;;;;;;8.80;6.60;;;;;;;21.45;29.39;102414.75;103109;1294;62058;-82
2023/12/18 05:19:25;;;;;;;8.60;7.00;;;;;;;21.44;29.47;102417.27;103027;1292;62447;-80
2023/12/18 05:21:51;;;;;;;9.90;6.70;;;;;;;21.44;29.53;102430.90;102874;1293;60775;-82
2023/12/18 05:24:17;;;;;;;9.90;7.50;;;;;;;21.43;29.52;102447.23;102941;1294;60092;-82
2023/12/18 05:26:42;;;;;;;9.10;7.50;;;;;;;21.41;29.35;102460.22;103159;1292;72491;-82
2023/12/18 05:29:08;;;;;;;10.50;7.50;;;;;;;21.40;29.21;102457.77;103365;1293;62217;-80
2023/12/18 05:31:33;;;;;;;10.10;7.20;;;;;;;21.38;29.13;102461.45;102991;1294;62311;-81
2023/12/18 05:33:59;;;;;;;10.10;7.70;;;;;;;21.36;29.16;102466.73;103058;1296;62060;-80
2023/12/18 05:36:25;;;;;;;9.40;7.20;;;;;;;21.33;29.16;102469.55;103040;1294;60367;-81
2023/12/18 05:38:51;;;;;;;9.10;7.30;;;;;;;21.31;28.94;102463.92;103069;1293;72320;-82
2023/12/18 05:41:16;;;;;;;9.80;7.30;;;;;;;21.28;29.06;102462.80;103357;1293;60568;-82
2023/12/18 05:43:42;;;;;;;10.90;8.10;;;;;;;21.25;28.88;102467.60;103712;1294;60232;-81
2023/12/18 05:46:12;;;;;;;9.60;7.60;;;;;;;21.21;28.84;102463.11;103591;1293;60193;-81
2023/12/18 05:48:38;;;;;;;10.80;7.80;;;;;;;21.18;28.71;102451.64;103787;1293;72238;-82
2023/12/18 05:51:04;;;;;;;12.80;8.30;;;;;;;21.14;28.77;102449.65;104059;1293;62234;-81
2023/12/18 05:53:29;;;;;;;12.00;8.30;;;;;;;21.11;28.56;102455.34;104332;1293;62196;-80
2023/12/18 05:55:55;;;;;;;10.80;8.00;;;;;;;21.07;28.60;102454.79;104794;1293;60033;-83
2023/12/18 05:58:20;;;;;;;15.60;8.90;;;;;;;21.03;28.58;102446.21;104484;1294;60058;-82
2023/12/18 06:00:46;;;;;;;19.70;8.00;;;;;;;20.99;28.27;102443.38;104514;1292;62151;-83
2023/12/18 06:03:12;;;;;;;15.50;8.60;;;;;;;20.94;28.42;102431.41;104939;1294;60224;-81
2023/12/18 06:05:37;;;;;;;13.90;8.50;;;;;;;20.90;28.54;102439.28;104362;1293;60291;-82
2023/12/18 06:08:03;;;;;;;12.60;8.30;;;;;;;20.86;28.44;102444.30;104545;1293;62136;-82
2023/12/18 06:10:29;;;;;;;14.70;8.60;;;;;;;20.82;28.35;102441.23;104639;1293;60206;-80
2023/12/18 06:12:54;;;;;;;15.40;8.60;;;;;;;20.79;28.30;102438.52;104414;1293;62149;-80
2023/12/18 06:15:20;;;;;;;11.00;8.00;;;;;;;20.76;28.15;102436.33;104408;1294;60662;-80
2023/12/18 06:17:46;;;;;;;11.90;8.60;;;;;;;20.73;28.23;102445.73;104528;1294;62190;-82
2023/12/18 06:20:11;;;;;;;11.50;7.90;;;;;;;20.71;28.08;102454.23;104453;1293;60064;-81
2023/12/18 06:22:37;;;;;;;12.30;7.70;;;;;;;20.69;28.21;102456.84;104088;1294;60289;-82
2023/12/18 06:25:03;;;;;;;10.20;8.00;;;;;;;20.66;27.99;102465.69;104370;1293;60664;-82
2023/12/18 06:27:29;;;;;;;11.00;8.20;;;;;;;20.64;28.00;102458.30;104106;1292;60276;-82
2023/12/18 06:29:54;;;;;;;13.00;8.80;;;;;;;20.62;27.91;102452.46;104569;1294;61531;-81
2023/12/18 06:32:20;;;;;;;11.30;8.30;;;;;;;20.59;27.92;102445.77;104388;1294;60208;-82
2023/12/18 06:34:46;;;;;;;12.40;8.80;;;;;;;20.57;28.03;102448.38;104704;1294;62158;-81
2023/12/18 06:37:12;;;;;;;11.90;8.50;;;;;;;20.55;27.88;102451.13;104757;1293;60285;-83
2023/12/18 06:39:38;;;;;;;13.20;8.40;;;;;;;20.53;27.98;102437.11;104505;1294;60006;-80
2023/12/18 06:42:04;;;;;;;11.10;8.40;;;;;;;20.51;27.82;102431.98;104451;1292;59919;-81
2023/12/18 06:44:30;;;;;;;10.90;8.40;;;;;;;20.49;27.72;102439.06;104580;1292;62120;-81
2023/12/18 06:46:56;;;;;;;11.30;8.50;;;;;;;20.49;27.72;102448.22;104646;1293;59886;-82
2023/12/18 06:49:21;;;;;;;12.20;8.30;;;;;;;20.47;27.56;102441.11;104703;1294;59983;-82
2023/12/18 06:51:56;;;;;;;11.50;7.70;;;;;;;20.46;27.57;102437.04;104597;1292;59897;-81
2023/12/18 06:54:21;;;;;;;13.30;7.60;;;;;;;20.45;27.59;102443.16;104517;1294;62065;-82
2023/12/18 06:56:47;;;;;;;13.20;7.70;;;;;;;20.45;27.97;102446.39;104406;1294;60537;-81
2023/12/18 06:59:13;;;;;;;14.90;7.40;;;;;;;20.46;28.38;102437.58;104590;1293;59934;-81
2023/12/18 07:01:38;;;;;;;11.70;7.70;;;;;;;20.47;28.81;102424.11;104989;1292;59968;-81
2023/12/18 07:04:04;;;;;;;13.30;8.00;;;;;;;20.48;29.16;102421.39;104912;1294;60925;-81
2023/12/18 07:06:30;;;;;;;11.30;8.10;;;;;;;20.46;29.10;102415.22;104914;1293;61364;-80
2023/12/18 07:08:57;;;;;;;10.10;8.00;;;;;;;20.43;29.09;102418.23;104498;1294;62098;-83
2023/12/18 07:11:23;;;;;;;12.60;8.20;;;;;;;20.40;29.07;102425.33;104861;1292;60076;-81
2023/12/18 07:13:48;;;;;;;12.50;8.10;;;;;;;20.36;28.78;102425.13;104645;1292;60284;-81
2023/12/18 07:16:23;;;;;;;11.50;8.30;;;;;;;20.33;28.82;102433.30;104640;1292;60231;-81
2023/12/18 07:18:49;;;;;;;11.60;8.60;;;;;;;20.31;28.83;102435.02;104704;1293;72344;-81
2023/12/18 07:21:14;;;;;;;10.40;7.80;;;;;;;20.28;28.57;102424.05;104954;1293;62202;-82
2023/12/18 07:23:42;;;;;;;12.10;8.20;;;;;;;20.25;28.59;102418.09;105135;1294;59829;-82
2023/12/18 07:26:12;;;;;;;14.00;8.50;;;;;;;20.24;28.53;102418.13;104931;1292;60834;-83
2023/12/18 07:28:39;;;;;;;14.60;8.90;;;;;;;20.21;28.49;102421.27;104826;1292;72543;-81
2023/12/18 07:31:05;;;;;;;12.50;8.60;;;;;;;20.20;28.40;102418.48;104953;1294;75349;-81
2023/12/18 07:33:30;;;;;;;12.80;9.00;;;;;;;20.19;28.33;102412.60;104621;1292;62444;-82
2023/12/18 07:35:56;;;;;;;11.00;8.70;;;;;;;20.19;28.23;102412.80;104247;1293;678983;-82
2023/12/18 07:38:22;;;;;;;15.30;9.00;;;;;;;20.18;28.30;102409.94;104721;1294;60834;-83
2023/12/18 07:40:48;;;;;;;14.90;9.50;;;;;;;20.19;28.32;102410.29;104458;1294;62820;-82
2023/12/18 07:43:14;;;;;;;13.10;9.30;;;;;;;20.19;28.22;102405.83;104367;1293;62075;-81
2023/12/18 07:45:39;;;;;;;13.90;9.10;;;;;;;20.19;28.22;102397.95;104730;1294;62202;-82
2023/12/18 07:48:06;;;;;;;12.50;9.40;;;;;;;20.19;28.21;102392.05;104556;1293;62196;-80
2023/12/18 07:50:31;;;;;;;12.80;8.90;;;;;;;20.18;28.11;102389.96;104386;1292;60117;-82
2023/12/18 07:52:57;;;;;;;12.50;9.00;;;;;;;20.17;27.90;102384.29;104147;1294;62206;-84
2023/12/18 07:55:23;;;;;;;16.90;8.40;;;;;;;20.16;28.11;102374.49;104389;1296;60559;-82
2023/12/18 07:57:48;;;;;;;17.50;8.40;;;;;;;20.14;28.47;102376.55;104321;1292;60387;-81
2023/12/18 08:00:15;;;;;;;19.90;8.10;;;;;;;20.13;28.98;102385.52;104556;1292;62184;-81
2023/12/18 08:02:41;;;;;;;23.40;9.10;;;;;;;20.13;29.47;102397.85;104089;1294;62166;-79
2023/12/18 08:05:07;;;;;;;16.80;9.10;;;;;;;20.15;29.56;102397.61;104156;1292;75281;-81
2023/12/18 08:07:33;;;;;;;17.50;9.00;;;;;;;20.16;29.81;102390.60;104230;1292;61515;-80
2023/12/18 08:09:58;;;;;;;16.20;8.10;;;;;;;20.18;29.72;102380.66;104086;1294;62076;-81
2023/12/18 08:12:24;;;;;;;14.00;8.30;;;;;;;20.21;29.80;102380.73;103989;1293;60807;-80
2023/12/18 08:14:51;;;;;;;13.90;7.80;;;;;;;20.25;29.81;102378.92;104061;1294;62273;-81
2023/12/18 08:17:16;;;;;;;12.80;8.10;;;;;;;20.28;29.89;102379.86;104101;1294;60977;-80
2023/12/18 08:19:48;;;;;;;12.50;8.10;;;;;;;20.32;29.84;102389.37;104325;1292;62090;-80
2023/12/18 08:22:14;;;;;;;12.90;7.80;;;;;;;20.35;30.00;102399.05;104614;1294;60115;-80
2023/12/18 08:24:41;;;;;;;16.80;8.30;;;;;;;20.39;29.92;102406.59;103837;1293;60530;-80
2023/12/18 08:27:07;;;;;;;12.20;7.40;;;;;;;20.41;30.01;102404.52;104827;1292;60158;-80
2023/12/18 08:29:32;;;;;;;11.90;7.80;;;;;;;20.45;30.25;102406.14;104434;1293;62193;-80
2023/12/18 08:31:58;;;;;;;12.10;7.60;;;;;;;20.48;30.33;102398.48;104251;1293;60851;-80
2023/12/18 08:34:24;;;;;;;15.00;7.30;;;;;;;20.52;30.37;102383.14;104262;1294;60023;-79
2023/12/18 08:36:52;;;;;;;15.10;7.10;;;;;;;20.55;30.49;102374.61;104179;1293;60373;-81
2023/12/18 08:39:18;;;;;;;13.30;7.70;;;;;;;20.57;30.41;102373.23;104328;1293;62203;-82
2023/12/18 08:41:46;;;;;;;10.80;7.50;;;;;;;20.60;30.80;102377.77;104245;1293;60646;-80
2023/12/18 08:44:12;;;;;;;16.00;7.50;;;;;;;20.63;30.81;102378.20;104405;1293;60047;-81
2023/12/18 08:46:39;;;;;;;14.90;7.50;;;;;;;20.65;30.78;102382.21;104219;1299;60377;-79
2023/12/18 08:49:04;;;;;;;21.00;7.50;;;;;;;20.68;31.07;102396.94;103976;1292;62260;-80
2023/12/18 08:51:30;;;;;;;13.20;7.60;;;;;;;20.70;31.10;102392.91;104146;1292;62086;-80
2023/12/18 08:53:56;;;;;;;17.50;7.60;;;;;;;20.72;31.06;102384.45;104566;1293;61418;-82
2023/12/18 08:56:22;;;;;;;16.70;7.50;;;;;;;20.73;31.26;102382.07;104786;1294;59997;-80
2023/12/18 08:58:49;;;;;;;13.90;7.30;;;;;;;20.72;31.56;102383.90;104138;1294;62224;-80
2023/12/18 09:01:15;;;;;;;17.10;8.10;;;;;;;20.71;31.83;102383.94;104156;1292;59893;-82
2023/12/18 09:03:41;;;;;;;28.00;8.10;;;;;;;20.70;32.14;102378.23;104321;1294;60436;-82
2023/12/18 09:06:07;;;;;;;20.70;8.30;;;;;;;20.69;32.85;102369.69;104498;1294;72454;-81
2023/12/18 09:08:39;;;;;;;21.20;8.30;;;;;;;20.68;33.38;102367.95;104002;1292;62238;-80
2023/12/18 09:11:06;;;;;;;18.60;8.80;;;;;;;20.64;33.24;102351.66;104468;1292;62070;-80
2023/12/18 09:13:34;;;;;;;21.00;8.50;;;;;;;20.61;33.10;102348.41;104511;1294;62014;-80
2023/12/18 09:16:07;;;;;;;20.50;7.90;;;;;;;20.58;32.99;102342.62;104523;1294;72569;-79
2023/12/18 09:18:33;;;;;;;15.30;8.00;;;;;;;20.56;32.95;102335.73;104587;1294;75507;-79
2023/12/18 09:20:59;;;;;;;12.90;8.50;;;;;;;20.55;33.13;102338.62;104461;1292;61045;-80
2023/12/18 09:23:25;;;;;;;12.60;7.80;;;;;;;20.54;33.06;102335.98;104455;1294;61422;-79
2023/12/18 09:25:52;;;;;;;18.10;8.10;;;;;;;20.54;32.96;102329.91;104715;1293;62189;-80
2023/12/18 09:28:18;;;;;;;16.20;8.50;;;;;;;20.54;33.00;102333.66;104246;1293;62216;-80
2023/12/18 09:30:43;;;;;;;16.00;7.90;;;;;;;20.54;32.94;102337.61;104515;1292;62059;-80
2023/12/18 09:33:09;;;;;;;15.60;7.50;;;;;;;20.55;33.14;102342.07;104680;1294;62260;-80
2023/12/18 09:35:34;;;;;;;18.50;7.90;;;;;;;20.54;33.20;102337.45;104288;1293;61740;-80
2023/12/18 09:38:01;;;;;;;21.30;7.50;;;;;;;20.54;33.24;102329.55;104370;1293;62223;-79
2023/12/18 09:40:27;;;;;;;14.60;7.70;;;;;;;20.55;33.27;102328.09;104696;1293;75199;-79
2023/12/18 09:42:56;;;;;;;22.30;8.00;;;;;;;20.55;33.43;102328.08;104984;1293;60866;-81
2023/12/18 09:45:23;;;;;;;18.80;7.50;;;;;;;20.55;33.47;102328.79;105082;1292;60129;-83
2023/12/18 09:47:54;;;;;;;18.90;7.60;;;;;;;20.54;33.72;102331.36;104969;1292;72701;-82
2023/12/18 09:50:20;;;;;;;27.10;10.20;;;;;;;20.52;33.71;102332.17;104670;1294;75207;-81
2023/12/18 09:53:00;;;;;;;19.40;8.70;;;;;;;20.48;33.87;102326.05;104593;1294;60651;-80
2023/12/18 09:55:26;;;;;;;25.10;10.80;;;;;;;20.42;33.72;102328.48;104510;1292;60680;-81
2023/12/18 09:57:52;;;;;;;24.80;10.50;;;;;;;20.36;33.75;102315.36;104548;1294;62863;-83
2023/12/18 10:00:19;;;;;;;23.10;9.80;;;;;;;20.32;33.65;102311.58;104759;1294;62270;-80
2023/12/18 10:02:45;;;;;;;27.60;10.00;;;;;;;20.28;33.80;102300.14;104872;1294;59561;-80
2023/12/18 10:05:12;;;;;;;35.30;9.70;;;;;;;20.22;34.01;102294.31;104712;1294;60134;-82
2023/12/18 10:07:37;;;;;;;29.10;10.90;;;;;;;20.16;34.21;102292.62;104243;1293;60280;-79
2023/12/18 10:10:03;;;;;;;22.70;9.90;;;;;;;20.10;34.15;102305.39;103962;1294;62212;-79
2023/12/18 10:12:29;;;;;;;21.40;9.40;;;;;;;20.00;34.10;102306.36;104182;1294;61229;-80
2023/12/18 10:14:55;;;;;;;20.10;8.70;;;;;;;19.91;34.17;102308.33;104161;1292;61732;-79
2023/12/18 10:17:21;;;;;;;15.50;9.20;;;;;;;19.90;34.02;102311.44;104047;1293;61265;-80
2023/12/18 10:19:47;;;;;;;22.50;9.30;;;;;;;19.90;34.08;102313.04;103993;1294;73374;-81
2023/12/18 10:22:12;;;;;;;18.60;10.10;;;;;;;19.91;34.08;102302.81;103915;1296;60889;-78
2023/12/18 10:24:41;;;;;;;17.20;9.00;;;;;;;19.91;33.99;102294.05;104645;1293;61281;-80
2023/12/18 10:27:07;;;;;;;16.80;9.20;;;;;;;19.91;34.05;102288.86;104410;1293;60878;-81
2023/12/18 10:29:33;;;;;;;12.60;8.40;;;;;;;19.91;33.90;102287.27;103975;1296;61812;-79
2023/12/18 10:31:58;;;;;;;15.00;9.20;;;;;;;19.92;33.70;102283.47;103954;1296;62070;-80
2023/12/18 10:34:25;;;;;;;16.50;9.10;;;;;;;19.93;33.70;102280.40;104217;1294;61422;-81
2023/12/18 10:36:50;;;;;;;20.20;10.20;;;;;;;19.96;33.53;102269.39;104153;1294;60611;-81
2023/12/18 10:39:18;;;;;;;18.50;10.10;;;;;;;19.97;33.54;102262.89;104146;1294;59869;-81
2023/12/18 10:41:45;;;;;;;18.40;9.70;;;;;;;19.99;33.56;102248.84;104145;1293;62086;-81
2023/12/18 10:44:12;;;;;;;18.20;9.00;;;;;;;20.02;33.79;102250.33;104019;1294;62143;-80
2023/12/18 10:46:38;;;;;;;17.90;8.00;;;;;;;20.05;33.87;102247.34;104021;1292;62005;-80
2023/12/18 10:49:04;;;;;;;16.50;8.80;;;;;;;20.07;33.95;102253.14;103816;1299;62331;-80
2023/12/18 10:51:39;;;;;;;15.00;8.00;;;;;;;20.09;34.10;102249.82;103958;1293;76303;-80
2023/12/18 10:54:05;;;;;;;18.40;8.00;;;;;;;20.11;34.00;102248.31;103631;1294;60629;-79
2023/12/18 10:56:30;;;;;;;17.00;9.30;;;;;;;20.14;34.08;102248.20;103814;1292;62156;-79
2023/12/18 10:58:57;;;;;;;19.90;8.90;;;;;;;20.15;34.18;102247.79;104163;1299;60176;-80
2023/12/18 11:01:23;;;;;;;16.60;8.50;;;;;;;20.16;34.39;102239.35;104046;1298;62187;-80
2023/12/18 11:03:50;;;;;;;19.00;9.00;;;;;;;20.16;34.31;102228.64;104295;1294;60686;-78
2023/12/18 11:06:17;;;;;;;16.40;10.00;;;;;;;20.12;34.26;102222.72;105237;1293;59770;-79